createdAt,value
2022-12-03T00:00:27.995Z,3.3
2022-12-03T00:05:27.826Z,3.6
2022-12-03T00:10:27.666Z,3.1
2022-12-03T00:15:27.638Z,3.7
2022-12-03T00:20:27.345Z,5.4
2022-12-03T00:25:27.196Z,3.8
2022-12-03T00:30:27.110Z,3.9
2022-12-03T00:35:26.936Z,4.0
2022-12-03T00:40:26.760Z,3.8
2022-12-03T00:45:26.639Z,3.9
2022-12-03T00:50:28.570Z,5.5
2022-12-03T00:55:26.373Z,4.0
2022-12-03T01:00:28.231Z,4.6
2022-12-03T01:05:26.049Z,6.0
2022-12-03T01:10:25.862Z,4.9
2022-12-03T01:15:27.708Z,5.3
2022-12-03T01:20:25.501Z,6.2
2022-12-03T01:25:25.300Z,4.7
2022-12-03T01:30:25.142Z,5.6
2022-12-03T01:35:25.055Z,4.7
2022-12-03T01:40:24.912Z,5.5
2022-12-03T01:45:24.713Z,4.8
2022-12-03T01:50:24.653Z,5.3
2022-12-03T01:55:24.457Z,5.2
2022-12-03T02:05:24.221Z,5.7
2022-12-03T02:10:24.083Z,5.3
2022-12-03T02:15:23.966Z,6.2
2022-12-03T02:20:23.791Z,5.9
2022-12-03T02:25:23.673Z,6.0
2022-12-03T02:30:25.542Z,4.6
2022-12-03T02:35:23.422Z,5.5
2022-12-03T02:40:23.291Z,5.7
2022-12-03T02:45:23.119Z,6.3
2022-12-03T02:50:23.019Z,6.7
2022-12-03T02:55:22.814Z,6.2
2022-12-03T03:00:22.714Z,4.8
2022-12-03T03:05:22.595Z,5.9
2022-12-03T03:10:22.481Z,6.1
2022-12-03T03:15:22.284Z,6.0
2022-12-03T03:20:22.215Z,7.5
2022-12-03T03:25:22.038Z,5.9
2022-12-03T03:30:21.902Z,5.4
2022-12-03T03:35:21.749Z,7.3
2022-12-03T03:40:24.117Z,7.2
2022-12-03T03:45:25.611Z,7.5
2022-12-03T03:50:21.343Z,6.0
2022-12-03T03:55:21.214Z,5.7
2022-12-03T04:00:21.148Z,5.1
2022-12-03T04:05:20.973Z,6.0
2022-12-03T04:10:20.822Z,6.2
2022-12-03T04:15:20.651Z,5.8
2022-12-03T04:20:20.606Z,5.7
2022-12-03T04:25:20.350Z,5.2
2022-12-03T04:30:20.210Z,5.0
2022-12-03T04:35:20.209Z,5.9
2022-12-03T04:40:20.032Z,6.0
2022-12-03T04:50:19.637Z,6.2
2022-12-03T04:55:19.479Z,5.1
2022-12-03T05:00:19.334Z,6.0
2022-12-03T05:05:19.223Z,4.7
2022-12-03T05:10:19.093Z,4.5
2022-12-03T05:15:18.994Z,5.0
2022-12-03T05:20:18.827Z,4.5
2022-12-03T05:25:18.718Z,4.1
2022-12-03T05:30:18.532Z,4.4
2022-12-03T05:35:18.370Z,4.8
2022-12-03T05:40:18.289Z,4.3
2022-12-03T05:45:18.132Z,5.4
2022-12-03T05:50:18.060Z,5.3
2022-12-03T05:55:17.879Z,3.7
2022-12-03T06:00:17.824Z,5.6
2022-12-03T06:05:17.631Z,6.3
2022-12-03T06:10:17.517Z,5.5
2022-12-03T06:15:19.870Z,4.6
2022-12-03T06:20:17.302Z,5.8
2022-12-03T06:25:17.094Z,5.6
2022-12-03T06:30:16.962Z,4.9
2022-12-03T06:35:16.793Z,5.4
2022-12-03T06:40:16.672Z,5.3
2022-12-03T06:45:16.503Z,6.4
2022-12-03T06:50:16.362Z,6.1
2022-12-03T06:55:16.238Z,6.8
2022-12-03T07:00:16.018Z,5.9
2022-12-03T07:05:15.860Z,6.5
2022-12-03T07:10:15.748Z,7.3
2022-12-03T07:15:15.625Z,6.5
2022-12-03T07:20:15.500Z,7.1
2022-12-03T07:25:22.654Z,7.3
2022-12-03T07:30:15.325Z,7.5
2022-12-03T07:35:16.043Z,7.2
2022-12-03T07:40:15.078Z,7.9
2022-12-03T07:45:14.870Z,7.5
2022-12-03T07:50:16.763Z,6.3
2022-12-03T07:55:14.672Z,8.0
2022-12-03T08:00:14.535Z,6.5
2022-12-03T08:05:14.360Z,7.5
2022-12-03T08:10:14.252Z,6.4
2022-12-03T08:15:14.117Z,7.2
2022-12-03T08:20:14.010Z,7.6
2022-12-03T08:25:13.813Z,6.4
2022-12-03T08:30:13.754Z,7.7
2022-12-03T08:35:13.628Z,8.6
2022-12-03T08:40:13.441Z,6.7
2022-12-03T08:45:13.292Z,5.7
2022-12-03T08:50:15.384Z,6.2
2022-12-03T08:55:13.053Z,6.9
2022-12-03T09:00:12.889Z,5.5
2022-12-03T09:05:12.752Z,6.3
2022-12-03T09:10:12.708Z,6.1
2022-12-03T09:15:12.597Z,6.9
2022-12-03T09:20:12.477Z,5.5
2022-12-03T09:25:12.609Z,6.0
2022-12-03T09:30:12.149Z,6.2
2022-12-03T09:35:14.068Z,5.8
2022-12-03T09:40:14.040Z,4.8
2022-12-03T09:45:11.897Z,6.4
2022-12-03T09:50:13.063Z,5.1
2022-12-03T09:55:11.626Z,5.3
2022-12-03T10:00:11.548Z,5.9
2022-12-03T10:10:11.323Z,5.0
2022-12-03T10:15:11.230Z,4.8
2022-12-03T10:20:11.140Z,4.6
2022-12-03T10:25:11.051Z,4.2
2022-12-03T10:30:11.055Z,4.3
2022-12-03T10:35:10.793Z,3.6
2022-12-03T10:40:10.744Z,3.8
2022-12-03T10:45:10.605Z,3.5
2022-12-03T10:50:10.535Z,4.4
2022-12-03T10:55:12.471Z,5.1
2022-12-03T11:00:10.398Z,4.4
2022-12-03T11:05:10.305Z,4.1
2022-12-03T11:10:10.265Z,4.2
2022-12-03T11:15:10.185Z,3.8
2022-12-03T11:20:10.130Z,4.0
2022-12-03T11:25:10.122Z,4.3
2022-12-03T11:30:10.034Z,3.8
2022-12-03T11:35:09.949Z,3.2
2022-12-03T11:40:09.913Z,2.8
2022-12-03T11:45:09.847Z,4.0
2022-12-03T11:50:09.812Z,3.7
2022-12-03T11:55:09.726Z,3.8
2022-12-03T12:00:09.714Z,3.9
2022-12-03T12:05:09.658Z,3.4
2022-12-03T12:10:09.659Z,3.8
2022-12-03T12:15:09.632Z,4.0
2022-12-03T12:20:09.626Z,3.4
2022-12-03T12:25:09.604Z,3.5
2022-12-03T12:35:09.525Z,4.5
2022-12-03T12:40:09.526Z,2.9
2022-12-03T12:45:09.458Z,3.4
2022-12-03T12:50:09.465Z,3.7
2022-12-03T12:55:09.448Z,3.6
2022-12-03T13:00:09.946Z,4.5
2022-12-03T13:05:10.574Z,4.3
2022-12-03T13:10:09.380Z,3.5
2022-12-03T13:15:09.379Z,4.9
2022-12-03T13:20:09.868Z,3.8
2022-12-03T13:25:09.328Z,4.1
2022-12-03T13:30:09.249Z,3.6
2022-12-03T13:35:09.160Z,3.2
2022-12-03T13:40:09.986Z,3.1
2022-12-03T13:45:09.025Z,4.5
2022-12-03T13:50:09.009Z,2.9
2022-12-03T13:55:08.903Z,4.8
2022-12-03T14:00:08.893Z,18.0
2022-12-03T14:05:08.812Z,5.9
2022-12-03T14:10:08.871Z,3.4
2022-12-03T14:15:09.535Z,4.7
2022-12-03T14:20:08.717Z,5.2
2022-12-03T14:25:08.708Z,4.4
2022-12-03T14:30:08.734Z,4.3
2022-12-03T14:35:10.284Z,4.7
2022-12-03T14:40:08.676Z,4.0
2022-12-03T14:45:08.603Z,4.2
2022-12-03T14:50:08.526Z,3.8
2022-12-03T14:55:08.503Z,4.2
2022-12-03T15:00:12.547Z,4.7
2022-12-03T15:05:08.321Z,4.6
2022-12-03T15:10:08.273Z,5.6
2022-12-03T15:15:08.194Z,4.7
2022-12-03T15:20:08.173Z,3.9
2022-12-03T15:25:08.149Z,4.7
2022-12-03T15:30:08.126Z,4.5
2022-12-03T15:35:07.943Z,4.7
2022-12-03T15:40:09.948Z,4.5
2022-12-03T15:45:13.437Z,5.3
2022-12-03T15:50:10.331Z,6.3
2022-12-03T15:55:07.697Z,4.8
2022-12-03T16:00:07.662Z,5.3
2022-12-03T16:05:07.644Z,5.2
2022-12-03T16:10:07.532Z,4.9
2022-12-03T16:15:07.448Z,5.9
2022-12-03T16:20:07.420Z,6.5
2022-12-03T16:25:07.390Z,5.5
2022-12-03T16:30:07.310Z,5.9
2022-12-03T16:35:07.244Z,6.8
2022-12-03T16:40:08.249Z,7.7
2022-12-03T16:45:07.069Z,7.1
2022-12-03T16:50:06.999Z,5.5
2022-12-03T16:55:06.918Z,6.7
2022-12-03T17:00:06.924Z,7.8
2022-12-03T17:10:09.269Z,8.9
2022-12-03T17:15:06.735Z,7.9
2022-12-03T17:20:06.701Z,9.4
2022-12-03T17:25:06.548Z,8.1
2022-12-03T17:30:06.513Z,7.2
2022-12-03T17:35:06.427Z,8.2
2022-12-03T17:40:08.500Z,9.8
2022-12-03T17:45:06.314Z,9.3
2022-12-03T17:55:12.791Z,8.1
2022-12-03T18:00:08.184Z,10.1
2022-12-03T18:05:08.074Z,9.6
2022-12-03T18:10:06.029Z,9.1
2022-12-03T18:15:05.906Z,11.5
2022-12-03T18:20:07.842Z,10.2
2022-12-03T18:25:05.888Z,9.4
2022-12-03T18:30:05.747Z,9.2
2022-12-03T18:35:05.631Z,8.7
2022-12-03T18:40:13.130Z,8.0
2022-12-03T18:45:05.447Z,7.7
2022-12-03T18:50:05.552Z,8.0
2022-12-03T18:55:05.329Z,9.0
2022-12-03T19:00:13.049Z,9.7
2022-12-03T19:05:05.177Z,8.9
2022-12-03T19:10:05.103Z,9.0
2022-12-03T19:15:05.008Z,7.9
2022-12-03T19:20:04.923Z,9.4
2022-12-03T19:25:04.813Z,10.2
2022-12-03T19:30:06.772Z,10.3
2022-12-03T19:35:07.143Z,10.7
2022-12-03T19:40:04.542Z,9.6
2022-12-03T19:45:04.407Z,10.0
2022-12-03T19:50:04.419Z,10.3
2022-12-03T19:55:04.242Z,9.8
2022-12-03T20:00:04.150Z,10.8
2022-12-03T20:05:04.036Z,9.3
2022-12-03T20:10:04.007Z,10.6
2022-12-03T20:15:04.025Z,11.5
2022-12-03T20:20:03.900Z,10.6
2022-12-03T20:25:03.752Z,9.5
2022-12-03T20:30:03.677Z,10.9
2022-12-03T20:35:03.606Z,9.3
2022-12-03T20:40:03.580Z,11.1
2022-12-03T20:50:03.418Z,12.5
2022-12-03T20:55:03.304Z,13.2
2022-12-03T21:00:03.238Z,11.3
2022-12-03T21:05:03.131Z,12.2
2022-12-03T21:10:03.074Z,11.5
2022-12-03T21:15:05.073Z,10.7
2022-12-03T21:20:02.930Z,12.1
2022-12-03T21:25:07.375Z,12.3
2022-12-03T21:30:02.832Z,12.8
2022-12-03T21:35:02.670Z,10.0
2022-12-03T21:40:02.626Z,11.8
2022-12-03T21:45:02.660Z,11.7
2022-12-03T21:50:02.524Z,11.4
2022-12-03T21:55:02.388Z,11.6
2022-12-03T22:00:02.824Z,12.5
2022-12-03T22:05:03.074Z,11.9
2022-12-03T22:10:02.155Z,11.2
2022-12-03T22:15:02.089Z,11.4
2022-12-03T22:20:01.971Z,10.8
2022-12-03T22:30:01.891Z,11.7
2022-12-03T22:35:01.751Z,11.5
2022-12-03T22:40:01.694Z,11.7
2022-12-03T22:45:01.582Z,11.4
2022-12-03T22:50:01.527Z,12.8
2022-12-03T22:55:01.401Z,10.6
2022-12-03T23:00:01.367Z,10.0
2022-12-03T23:05:03.199Z,12.6
2022-12-03T23:10:01.152Z,9.8
2022-12-03T23:15:01.348Z,10.0
2022-12-03T23:20:00.919Z,11.3
2022-12-03T23:25:00.770Z,11.5
2022-12-03T23:30:00.727Z,10.7
2022-12-03T23:35:00.562Z,10.8
2022-12-03T23:40:00.490Z,10.4
2022-12-03T23:45:02.402Z,11.6
2022-12-03T23:50:00.475Z,11.1
2022-12-03T23:55:00.657Z,9.8
